Time,TemperatureF,DewpointF,PressureIn,WindDirection,WindDirectionDegrees,WindSpeedMPH,WindSpeedGustMPH,Humidity,HourlyPrecipIn,Conditions,Clouds,dailyrainin,SoftwareType,DateUTC
2013-07-19 00:14:00,75.1,72.0,29.93,East,90,0.0,1.0,91,0.00,,,0.00,weatherlink.com 1.10,2013-07-19 04:14:00,
2013-07-19 00:29:00,74.8,72.0,29.93,East,89,0.0,2.0,91,0.00,,,0.00,weatherlink.com 1.10,2013-07-19 04:29:00,
2013-07-19 00:44:00,74.5,72.0,29.93,East,90,2.0,3.0,92,0.00,,,0.00,weatherlink.com 1.10,2013-07-19 04:44:00,
2013-07-19 00:59:00,74.3,72.0,29.93,ENE,76,0.0,3.0,92,0.00,,,0.00,weatherlink.com 1.10,2013-07-19 04:59:00,
2013-07-19 01:14:00,74.3,72.0,29.93,ENE,76,2.0,2.0,92,0.00,,,0.00,weatherlink.com 1.10,2013-07-19 05:14:00,
2013-07-19 01:29:00,74.4,72.0,29.93,ENE,76,0.0,1.0,92,0.00,,,0.00,weatherlink.com 1.10,2013-07-19 05:29:00,
2013-07-19 01:44:00,74.4,72.0,29.93,ENE,76,0.0,0.0,92,0.00,,,0.00,weatherlink.com 1.10,2013-07-19 05:44:00,
2013-07-19 01:59:00,74.3,72.0,29.93,ENE,76,0.0,0.0,92,0.00,,,0.00,weatherlink.com 1.10,2013-07-19 05:59:00,
2013-07-19 02:14:00,74.3,72.0,29.93,ENE,76,0.0,0.0,92,0.00,,,0.00,weatherlink.com 1.10,2013-07-19 06:14:00,
2013-07-19 02:29:00,74.3,72.0,29.93,ENE,76,0.0,0.0,92,0.00,,,0.00,weatherlink.com 1.10,2013-07-19 06:29:00,
2013-07-19 02:44:00,74.2,72.0,29.93,ENE,76,0.0,0.0,93,0.00,,,0.00,weatherlink.com 1.10,2013-07-19 06:44:00,
2013-07-19 02:59:00,73.9,72.0,29.93,ENE,76,0.0,0.0,93,0.00,,,0.00,weatherlink.com 1.10,2013-07-19 06:59:00,
2013-07-19 03:14:00,73.7,72.0,29.93,ENE,76,0.0,0.0,93,0.00,,,0.00,weatherlink.com 1.10,2013-07-19 07:14:00,
2013-07-19 03:29:00,73.5,72.0,29.93,ENE,76,0.0,0.0,94,0.00,,,0.00,weatherlink.com 1.10,2013-07-19 07:29:00,
2013-07-19 03:44:00,73.3,72.0,29.93,ENE,77,0.0,0.0,94,0.00,,,0.00,weatherlink.com 1.10,2013-07-19 07:44:00,
2013-07-19 03:59:00,73.2,72.0,29.92,ENE,77,0.0,1.0,95,0.00,,,0.00,weatherlink.com 1.10,2013-07-19 07:59:00,
2013-07-19 04:14:00,73.0,72.0,29.92,ENE,77,0.0,0.0,95,0.00,,,0.00,weatherlink.com 1.10,2013-07-19 08:14:00,
2013-07-19 04:29:00,72.7,71.0,29.92,ENE,77,1.0,2.0,95,0.00,,,0.00,weatherlink.com 1.10,2013-07-19 08:29:00,
2013-07-19 04:44:00,72.6,71.0,29.92,ENE,65,0.0,2.0,95,0.00,,,0.00,weatherlink.com 1.10,2013-07-19 08:44:00,
2013-07-19 04:59:00,72.6,71.0,29.91,SSE,151,0.0,1.0,95,0.00,,,0.00,weatherlink.com 1.10,2013-07-19 08:59:00,
2013-07-19 05:14:00,72.3,71.0,29.91,SSE,151,0.0,0.0,95,0.00,,,0.00,weatherlink.com 1.10,2013-07-19 09:14:00,
2013-07-19 05:29:00,72.2,71.0,29.92,SSE,150,0.0,0.0,95,0.00,,,0.00,weatherlink.com 1.10,2013-07-19 09:29:00,
2013-07-19 05:44:00,72.0,71.0,29.92,SSE,150,1.0,1.0,96,0.00,,,0.00,weatherlink.com 1.10,2013-07-19 09:44:00,
2013-07-19 05:59:00,71.8,71.0,29.91,SSE,150,0.0,1.0,96,0.00,,,0.00,weatherlink.com 1.10,2013-07-19 09:59:00,
2013-07-19 06:15:00,71.7,71.0,29.91,SSE,149,0.0,2.0,96,0.00,,,0.00,weatherlink.com 1.10,2013-07-19 10:15:00,
2013-07-19 06:30:00,71.9,71.0,29.91,SSE,149,1.0,2.0,96,0.00,,,0.00,weatherlink.com 1.10,2013-07-19 10:30:00,
2013-07-19 06:45:00,72.2,71.0,29.91,SE,144,0.0,2.0,96,0.00,,,0.00,weatherlink.com 1.10,2013-07-19 10:45:00,
2013-07-19 07:00:00,72.5,72.0,29.91,SE,144,0.0,0.0,97,0.00,,,0.00,weatherlink.com 1.10,2013-07-19 11:00:00,
2013-07-19 07:15:00,73.0,72.0,29.92,SE,144,0.0,0.0,97,0.00,,,0.00,weatherlink.com 1.10,2013-07-19 11:15:00,
2013-07-19 07:30:00,73.5,73.0,29.92,SE,144,0.0,0.0,97,0.00,,,0.00,weatherlink.com 1.10,2013-07-19 11:30:00,
2013-07-19 07:45:00,74.6,74.0,29.92,SSE,165,0.0,1.0,97,0.00,,,0.00,weatherlink.com 1.10,2013-07-19 11:45:00,
2013-07-19 08:00:00,75.8,74.0,29.92,West,277,0.0,2.0,95,0.00,,,0.00,weatherlink.com 1.10,2013-07-19 12:00:00,
2013-07-19 08:15:00,77.4,74.0,29.92,NNW,341,0.0,1.0,90,0.00,,,0.00,weatherlink.com 1.10,2013-07-19 12:15:00,
2013-07-19 08:30:00,79.3,75.0,29.92,North,355,0.0,3.0,86,0.00,,,0.00,weatherlink.com 1.10,2013-07-19 12:30:00,
2013-07-19 08:45:00,80.9,76.0,29.92,NNW,330,0.0,3.0,84,0.00,,,0.00,weatherlink.com 1.10,2013-07-19 12:45:00,
2013-07-19 09:00:00,82.6,76.0,29.92,NW,304,1.0,4.0,79,0.00,,,0.00,weatherlink.com 1.10,2013-07-19 13:00:00,
2013-07-19 09:15:00,83.5,75.0,29.92,SSW,194,0.0,5.0,76,0.00,,,0.00,weatherlink.com 1.10,2013-07-19 13:15:00,
2013-07-19 09:30:00,84.6,77.0,29.92,SW,236,2.0,3.0,77,0.00,,,0.00,weatherlink.com 1.10,2013-07-19 13:30:00,
2013-07-19 09:45:00,85.6,76.0,29.92,SW,232,1.0,4.0,74,0.00,,,0.00,weatherlink.com 1.10,2013-07-19 13:45:00,
2013-07-19 10:00:00,86.3,77.0,29.91,SW,217,3.0,6.0,73,0.00,,,0.00,weatherlink.com 1.10,2013-07-19 14:00:00,
2013-07-19 10:15:00,86.3,76.0,29.91,SSW,211,5.0,9.0,71,0.00,,,0.00,weatherlink.com 1.10,2013-07-19 14:15:00,
2013-07-19 10:30:00,87.0,77.0,29.91,SSW,202,2.0,6.0,72,0.00,,,0.00,weatherlink.com 1.10,2013-07-19 14:30:00,
2013-07-19 10:45:00,88.1,78.0,29.91,SW,225,1.0,8.0,71,0.00,,,0.00,weatherlink.com 1.10,2013-07-19 14:45:00,
2013-07-19 11:00:00,89.6,79.0,29.91,West,272,2.0,5.0,70,0.00,,,0.00,weatherlink.com 1.10,2013-07-19 15:00:00,
2013-07-19 11:16:00,90.5,78.0,29.90,WSW,248,5.0,7.0,67,0.00,,,0.00,weatherlink.com 1.10,2013-07-19 15:16:00,
2013-07-19 11:31:00,91.2,78.0,29.90,West,277,2.0,7.0,66,0.00,,,0.00,weatherlink.com 1.10,2013-07-19 15:31:00,
2013-07-19 11:46:00,90.8,78.0,29.89,WSW,246,2.0,8.0,66,0.00,,,0.00,weatherlink.com 1.10,2013-07-19 15:46:00,
2013-07-19 12:01:00,91.0,78.0,29.89,WSW,240,2.0,9.0,65,0.00,,,0.00,weatherlink.com 1.10,2013-07-19 16:01:00,
2013-07-19 12:16:00,91.7,78.0,29.89,SW,221,8.0,9.0,65,0.00,,,0.00,weatherlink.com 1.10,2013-07-19 16:16:00,
2013-07-19 12:31:00,92.0,77.0,29.88,South,190,3.0,12.0,62,0.00,,,0.00,weatherlink.com 1.10,2013-07-19 16:31:00,
2013-07-19 12:46:00,92.9,77.0,29.87,WSW,239,6.0,9.0,61,0.00,,,0.00,weatherlink.com 1.10,2013-07-19 16:46:00,
2013-07-19 13:01:00,93.8,77.0,29.87,West,260,7.0,9.0,59,0.00,,,0.00,weatherlink.com 1.10,2013-07-19 17:01:00,
2013-07-19 13:16:00,93.7,76.0,29.86,WNW,283,9.0,11.0,57,0.00,,,0.00,weatherlink.com 1.10,2013-07-19 17:16:00,
2013-07-19 13:31:00,93.5,75.0,29.86,SSW,198,7.0,12.0,55,0.00,,,0.00,weatherlink.com 1.10,2013-07-19 17:31:00,
2013-07-19 13:46:00,93.5,75.0,29.85,SW,230,4.0,16.0,56,0.00,,,0.00,weatherlink.com 1.10,2013-07-19 17:46:00,
2013-07-19 14:01:00,93.6,75.0,29.85,South,171,12.0,17.0,54,0.00,,,0.00,weatherlink.com 1.10,2013-07-19 18:01:00,
2013-07-19 14:16:00,94.7,76.0,29.84,WSW,244,2.0,13.0,55,0.00,,,0.00,weatherlink.com 1.10,2013-07-19 18:16:00,
2013-07-19 14:31:00,95.9,78.0,29.83,SW,214,3.0,9.0,57,0.00,,,0.00,weatherlink.com 1.10,2013-07-19 18:31:00,
2013-07-19 14:46:00,96.4,77.0,29.83,WSW,243,2.0,10.0,54,0.00,,,0.00,weatherlink.com 1.10,2013-07-19 18:46:00,
2013-07-19 15:01:00,95.6,77.0,29.82,SW,223,2.0,13.0,55,0.00,,,0.00,weatherlink.com 1.10,2013-07-19 19:01:00,
2013-07-19 15:16:00,97.1,79.0,29.81,WSW,237,3.0,8.0,56,0.00,,,0.00,weatherlink.com 1.10,2013-07-19 19:16:00,
2013-07-19 15:31:00,96.3,75.0,29.80,WSW,239,9.0,12.0,51,0.00,,,0.00,weatherlink.com 1.10,2013-07-19 19:31:00,
2013-07-19 15:46:00,95.3,76.0,29.80,WSW,243,3.0,13.0,53,0.00,,,0.00,weatherlink.com 1.10,2013-07-19 19:46:00,
2013-07-19 16:01:00,95.6,76.0,29.79,SW,234,5.0,15.0,53,0.00,,,0.00,weatherlink.com 1.10,2013-07-19 20:01:00,
2013-07-19 16:16:00,95.1,76.0,29.79,WSW,237,8.0,10.0,55,0.00,,,0.00,weatherlink.com 1.10,2013-07-19 20:16:00,
2013-07-19 16:31:00,93.6,77.0,29.79,SW,229,3.0,10.0,58,0.00,,,0.00,weatherlink.com 1.10,2013-07-19 20:31:00,
2013-07-19 16:46:00,91.9,78.0,29.79,SW,229,2.0,7.0,63,0.00,,,0.00,weatherlink.com 1.10,2013-07-19 20:46:00,
2013-07-19 17:01:00,91.3,77.0,29.78,SW,232,5.0,8.0,64,0.00,,,0.00,weatherlink.com 1.10,2013-07-19 21:01:00,
2013-07-19 17:16:00,91.4,77.0,29.77,South,184,4.0,9.0,62,0.00,,,0.00,weatherlink.com 1.10,2013-07-19 21:16:00,
2013-07-19 17:31:00,91.9,77.0,29.77,WSW,243,1.0,8.0,61,0.00,,,0.00,weatherlink.com 1.10,2013-07-19 21:31:00,
2013-07-19 17:46:00,91.3,76.0,29.77,WSW,244,6.0,8.0,62,0.00,,,0.00,weatherlink.com 1.10,2013-07-19 21:46:00,
2013-07-19 18:01:00,90.9,77.0,29.77,SW,228,2.0,8.0,63,0.00,,,0.00,weatherlink.com 1.10,2013-07-19 22:01:00,
2013-07-19 18:16:00,90.1,76.0,29.77,WSW,242,3.0,11.0,63,0.00,,,0.00,weatherlink.com 1.10,2013-07-19 22:16:00,
2013-07-19 18:31:00,90.1,76.0,29.77,West,270,2.0,10.0,63,0.00,,,0.00,weatherlink.com 1.10,2013-07-19 22:31:00,
2013-07-19 18:46:00,89.9,76.0,29.77,SSW,202,3.0,9.0,64,0.00,,,0.00,weatherlink.com 1.10,2013-07-19 22:46:00,
2013-07-19 19:01:00,89.4,76.0,29.76,SSW,206,6.0,8.0,65,0.00,,,0.00,weatherlink.com 1.10,2013-07-19 23:01:00,
2013-07-19 19:16:00,88.6,76.0,29.76,WSW,242,3.0,7.0,67,0.00,,,0.00,weatherlink.com 1.10,2013-07-19 23:16:00,
2013-07-19 19:31:00,88.0,76.0,29.77,West,267,4.0,9.0,68,0.00,,,0.00,weatherlink.com 1.10,2013-07-19 23:31:00,
2013-07-19 19:46:00,87.7,76.0,29.78,WSW,238,2.0,9.0,69,0.00,,,0.00,weatherlink.com 1.10,2013-07-19 23:46:00,
2013-07-19 20:01:00,87.5,77.0,29.77,SW,229,2.0,4.0,70,0.00,,,0.00,weatherlink.com 1.10,2013-07-20 00:01:00,
2013-07-19 20:17:00,87.1,77.0,29.79,WSW,242,2.0,7.0,72,0.00,,,0.00,weatherlink.com 1.10,2013-07-20 00:17:00,
2013-07-19 20:32:00,86.6,77.0,29.80,SW,232,1.0,8.0,74,0.00,,,0.00,weatherlink.com 1.10,2013-07-20 00:32:00,
2013-07-19 20:47:00,86.3,78.0,29.79,West,274,2.0,10.0,75,0.00,,,0.00,weatherlink.com 1.10,2013-07-20 00:47:00,
2013-07-19 21:02:00,86.1,77.0,29.79,SSW,209,0.0,7.0,75,0.00,,,0.00,weatherlink.com 1.10,2013-07-20 01:02:00,
2013-07-19 21:17:00,85.8,77.0,29.80,South,179,0.0,6.0,76,0.00,,,0.00,weatherlink.com 1.10,2013-07-20 01:17:00,
2013-07-19 21:32:00,85.4,77.0,29.80,WSW,246,1.0,7.0,76,0.00,,,0.00,weatherlink.com 1.10,2013-07-20 01:32:00,
2013-07-19 21:47:00,85.1,76.0,29.80,SSW,209,0.0,8.0,74,0.00,,,0.00,weatherlink.com 1.10,2013-07-20 01:47:00,
2013-07-19 22:02:00,84.8,75.0,29.79,SW,229,1.0,9.0,73,0.00,,,0.00,weatherlink.com 1.10,2013-07-20 02:02:00,
2013-07-19 22:17:00,84.3,74.0,29.78,SW,220,0.0,6.0,72,0.00,,,0.00,weatherlink.com 1.10,2013-07-20 02:17:00,
2013-07-19 22:32:00,83.6,74.0,29.76,NNW,340,2.0,6.0,73,0.00,,,0.00,weatherlink.com 1.10,2013-07-20 02:32:00,
2013-07-19 22:47:00,82.8,72.0,29.75,WSW,246,0.0,6.0,70,0.00,,,0.00,weatherlink.com 1.10,2013-07-20 02:47:00,
2013-07-19 23:02:00,82.1,71.0,29.76,SSW,197,1.0,6.0,70,0.00,,,0.00,weatherlink.com 1.10,2013-07-20 03:02:00,
2013-07-19 23:17:00,81.8,72.0,29.76,SW,219,0.0,4.0,71,0.00,,,0.00,weatherlink.com 1.10,2013-07-20 03:17:00,
2013-07-19 23:32:00,81.1,72.0,29.76,ESE,111,0.0,2.0,74,0.00,,,0.00,weatherlink.com 1.10,2013-07-20 03:32:00,
2013-07-19 23:47:00,79.6,72.0,29.76,ESE,111,0.0,1.0,77,0.00,,,0.00,weatherlink.com 1.10,2013-07-20 03:47:00,